Time;durP1;ratioP1;P1;durP2;ratioP2;P2;SDS_P1;SDS_P2;PMS_P1;PMS_P2;Temp;Humidity;BMP_temperature;BMP_pressure;BME280_temperature;BME280_humidity;BME280_pressure;Samples;Min_cycle;Max_cycle;Signal;HPM_P1;HPM_P2
2021/04/22 00:01:34;;;;;;;3.83;1.65;;;;;;;;;;5032957;28;20669;-75
2021/04/22 00:04:00;;;;;;;3.13;2.00;;;;;;;;;;5040006;28;20210;-75
2021/04/22 00:06:26;;;;;;;6.22;2.42;;;;;;;;;;5031782;28;20201;-75
2021/04/22 00:08:52;;;;;;;3.50;1.92;;;;;;;;;;5031920;28;20178;-75
2021/04/22 00:11:18;;;;;;;4.00;1.63;;;;;;;;;;5031622;28;20182;-74
2021/04/22 00:13:45;;;;;;;6.07;1.50;;;;;;;;;;5031317;28;20285;-75
2021/04/22 00:16:11;;;;;;;4.95;1.70;;;;;;;;;;5032011;28;20172;-75
2021/04/22 00:18:37;;;;;;;2.97;2.58;;;;;;;;;;5031564;28;20257;-75
2021/04/22 00:21:03;;;;;;;6.53;2.13;;;;;;;;;;5031930;28;20206;-75
2021/04/22 00:23:29;;;;;;;3.95;1.60;;;;;;;;;;5029480;28;20218;-75
2021/04/22 00:25:55;;;;;;;11.60;4.20;;;;;;;;;;5030954;28;20260;-75
2021/04/22 00:28:22;;;;;;;5.23;2.53;;;;;;;;;;5031435;28;20280;-75
2021/04/22 00:30:48;;;;;;;4.30;2.10;;;;;;;;;;5030685;28;20425;-74
2021/04/22 00:33:16;;;;;;;3.00;2.00;;;;;;;;;;5037896;28;20198;-75
2021/04/22 00:35:43;;;;;;;4.82;1.80;;;;;;;;;;5012072;28;20209;-75
2021/04/22 00:38:09;;;;;;;2.67;1.65;;;;;;;;;;5016750;28;20178;-75
2021/04/22 00:40:36;;;;;;;7.03;2.25;;;;;;;;;;5031491;28;20267;-75
2021/04/22 00:43:03;;;;;;;6.38;2.55;;;;;;;;;;5032430;28;20214;-75
2021/04/22 00:45:29;;;;;;;5.18;1.63;;;;;;;;;;5046451;28;20177;-75
2021/04/22 00:47:55;;;;;;;2.10;1.48;;;;;;;;;;5030168;28;20248;-75
2021/04/22 00:50:23;;;;;;;5.38;1.55;;;;;;;;;;5031582;28;20202;-75
2021/04/22 00:52:51;;;;;;;3.30;1.70;;;;;;;;;;5051113;28;20186;-75
2021/04/22 00:55:17;;;;;;;6.20;2.47;;;;;;;;;;5029964;28;20189;-75
2021/04/22 00:57:43;;;;;;;2.60;2.00;;;;;;;;;;5041515;28;20177;-74
2021/04/22 01:00:10;;;;;;;4.77;2.43;;;;;;;;;;5031204;28;20186;-75
2021/04/22 01:02:37;;;;;;;3.03;1.55;;;;;;;;;;5030661;28;20942;-75
2021/04/22 01:05:23;;;;;;;3.08;2.33;;;;;;;;;;5043954;28;20178;-75
2021/04/22 01:07:49;;;;;;;3.55;1.80;;;;;;;;;;5021856;28;20279;-75
2021/04/22 01:10:16;;;;;;;4.60;2.05;;;;;;;;;;5031230;28;20324;-75
2021/04/22 01:12:42;;;;;;;11.45;3.50;;;;;;;;;;5030819;28;20194;-75
2021/04/22 01:15:09;;;;;;;8.50;2.35;;;;;;;;;;5029192;28;20214;-75
2021/04/22 01:17:36;;;;;;;7.07;2.72;;;;;;;;;;5031456;28;20753;-75
2021/04/22 01:20:05;;;;;;;3.67;2.63;;;;;;;;;;5031323;28;20548;-75
2021/04/22 01:22:31;;;;;;;4.68;1.92;;;;;;;;;;5031038;28;20214;-75
2021/04/22 01:24:57;;;;;;;3.30;1.80;;;;;;;;;;5035300;28;20228;-75
2021/04/22 01:27:23;;;;;;;2.17;1.30;;;;;;;;;;5036913;28;20499;-74
2021/04/22 01:29:49;;;;;;;5.67;1.50;;;;;;;;;;5034230;28;20687;-75
2021/04/22 01:32:15;;;;;;;8.18;2.45;;;;;;;;;;5034641;28;20435;-75
2021/04/22 01:34:41;;;;;;;5.25;1.85;;;;;;;;;;5031042;28;20568;-75
2021/04/22 01:37:07;;;;;;;5.00;2.20;;;;;;;;;;5031207;28;20185;-75
2021/04/22 01:39:33;;;;;;;5.47;2.00;;;;;;;;;;5031021;28;20175;-75
2021/04/22 01:41:59;;;;;;;6.22;2.05;;;;;;;;;;5030754;28;20174;-74
2021/04/22 01:44:25;;;;;;;5.70;2.25;;;;;;;;;;5034151;28;20194;-75
2021/04/22 01:46:51;;;;;;;8.07;2.40;;;;;;;;;;5034475;28;20209;-75
2021/04/22 01:49:17;;;;;;;3.50;2.03;;;;;;;;;;5034392;28;20447;-75
2021/04/22 01:51:43;;;;;;;7.10;2.58;;;;;;;;;;5034412;28;20670;-75
2021/04/22 01:54:09;;;;;;;8.47;3.40;;;;;;;;;;5033116;28;20201;-74
2021/04/22 01:56:35;;;;;;;4.10;2.83;;;;;;;;;;5034357;28;20816;-75
2021/04/22 01:59:01;;;;;;;3.05;1.80;;;;;;;;;;5033651;28;20181;-75
2021/04/22 02:01:27;;;;;;;2.65;1.55;;;;;;;;;;5049924;28;20574;-73
2021/04/22 02:03:53;;;;;;;3.50;1.90;;;;;;;;;;5040103;28;20209;-75
2021/04/22 02:06:19;;;;;;;6.22;2.53;;;;;;;;;;5033778;28;20869;-75
2021/04/22 02:08:45;;;;;;;5.77;2.43;;;;;;;;;;5033539;28;20205;-74
2021/04/22 02:11:11;;;;;;;4.45;2.00;;;;;;;;;;5034287;28;20417;-75
2021/04/22 02:13:37;;;;;;;7.53;1.88;;;;;;;;;;5033282;28;20195;-75
2021/04/22 02:16:03;;;;;;;4.13;1.95;;;;;;;;;;5032731;28;20268;-74
2021/04/22 02:18:29;;;;;;;4.00;2.00;;;;;;;;;;5033800;28;20186;-75
2021/04/22 02:20:55;;;;;;;4.00;1.80;;;;;;;;;;5034039;28;20261;-75
2021/04/22 02:23:23;;;;;;;2.58;1.80;;;;;;;;;;5033434;28;20592;-75
2021/04/22 02:25:49;;;;;;;4.63;2.38;;;;;;;;;;5031838;28;20182;-75
2021/04/22 02:28:15;;;;;;;2.03;1.80;;;;;;;;;;5033369;28;20225;-75
2021/04/22 02:30:42;;;;;;;6.82;2.80;;;;;;;;;;5033324;28;20206;-75
2021/04/22 02:33:09;;;;;;;5.95;2.28;;;;;;;;;;5032966;28;20212;-75
2021/04/22 02:35:36;;;;;;;4.85;2.75;;;;;;;;;;5032130;28;20228;-75
2021/04/22 02:38:04;;;;;;;7.80;2.53;;;;;;;;;;5033628;28;20182;-75
2021/04/22 02:40:30;;;;;;;14.88;2.63;;;;;;;;;;5033491;28;20182;-75
2021/04/22 02:42:57;;;;;;;3.83;1.60;;;;;;;;;;5032997;28;20202;-75
2021/04/22 02:45:28;;;;;;;7.55;2.28;;;;;;;;;;5033621;28;20181;-75
2021/04/22 02:47:54;;;;;;;8.75;2.45;;;;;;;;;;5033318;28;20206;-74
2021/04/22 02:50:22;;;;;;;5.72;1.88;;;;;;;;;;5033207;28;20325;-74
2021/04/22 02:52:48;;;;;;;5.13;2.00;;;;;;;;;;5015672;28;20214;-74
2021/04/22 02:55:14;;;;;;;4.45;2.38;;;;;;;;;;5032770;28;20179;-74
2021/04/22 02:57:41;;;;;;;3.53;1.60;;;;;;;;;;5033040;28;20197;-74
2021/04/22 03:00:08;;;;;;;3.60;2.10;;;;;;;;;;5046427;28;20235;-74
2021/04/22 03:02:34;;;;;;;7.50;2.40;;;;;;;;;;5048366;28;20194;-74
2021/04/22 03:05:00;;;;;;;7.03;2.28;;;;;;;;;;5032891;28;20170;-74
2021/04/22 03:07:26;;;;;;;7.43;2.67;;;;;;;;;;5033000;28;20769;-74
2021/04/22 03:09:52;;;;;;;2.58;1.95;;;;;;;;;;5033202;28;20202;-74
2021/04/22 03:12:18;;;;;;;3.67;1.75;;;;;;;;;;5032857;28;20170;-74
2021/04/22 03:14:44;;;;;;;3.00;2.33;;;;;;;;;;5032212;28;20529;-74
2021/04/22 03:17:10;;;;;;;3.08;1.85;;;;;;;;;;5025190;28;20271;-74
2021/04/22 03:19:36;;;;;;;8.02;2.67;;;;;;;;;;5032146;28;20324;-74
2021/04/22 03:22:02;;;;;;;2.67;1.90;;;;;;;;;;5031885;28;20178;-74
2021/04/22 03:24:28;;;;;;;3.75;2.42;;;;;;;;;;5029760;28;20221;-74
2021/04/22 03:26:54;;;;;;;3.75;2.70;;;;;;;;;;5024452;28;20571;-74
2021/04/22 03:29:20;;;;;;;5.28;2.00;;;;;;;;;;5032800;28;20182;-74
2021/04/22 03:31:46;;;;;;;2.55;2.25;;;;;;;;;;5031310;28;20642;-74
2021/04/22 03:34:12;;;;;;;3.20;2.38;;;;;;;;;;5027937;28;20244;-74
2021/04/22 03:36:38;;;;;;;5.15;2.30;;;;;;;;;;5031339;28;20525;-75
2021/04/22 03:39:05;;;;;;;4.72;2.47;;;;;;;;;;5032497;28;20197;-74
2021/04/22 03:41:31;;;;;;;3.17;1.95;;;;;;;;;;5031509;28;20197;-74
2021/04/22 03:43:57;;;;;;;6.43;2.63;;;;;;;;;;5031759;28;20229;-74
2021/04/22 03:46:23;;;;;;;8.02;2.95;;;;;;;;;;5031433;28;20244;-74
2021/04/22 03:48:49;;;;;;;5.90;2.55;;;;;;;;;;5032341;28;20191;-75
2021/04/22 03:51:15;;;;;;;4.50;2.70;;;;;;;;;;5030533;28;20182;-74
2021/04/22 03:53:41;;;;;;;4.65;3.05;;;;;;;;;;5031729;28;20858;-74
2021/04/22 03:56:07;;;;;;;5.82;2.65;;;;;;;;;;5027606;28;20205;-74
2021/04/22 03:58:33;;;;;;;4.60;2.60;;;;;;;;;;5031928;28;20236;-74
2021/04/22 04:01:00;;;;;;;3.08;2.78;;;;;;;;;;5031171;28;20436;-74
2021/04/22 04:03:26;;;;;;;5.57;2.67;;;;;;;;;;5031214;28;20201;-74
2021/04/22 04:05:52;;;;;;;9.65;2.38;;;;;;;;;;5030790;28;20551;-74
2021/04/22 04:08:18;;;;;;;5.35;2.30;;;;;;;;;;5031830;28;20750;-74
2021/04/22 04:10:44;;;;;;;4.20;2.40;;;;;;;;;;5030907;28;20178;-74
2021/04/22 04:13:10;;;;;;;4.05;2.67;;;;;;;;;;5030774;28;20205;-74
2021/04/22 04:15:36;;;;;;;4.40;2.50;;;;;;;;;;5031099;28;20216;-74
2021/04/22 04:18:03;;;;;;;3.35;1.70;;;;;;;;;;5029772;28;20232;-74
2021/04/22 04:20:29;;;;;;;4.70;2.75;;;;;;;;;;5030640;28;20187;-74
2021/04/22 04:22:55;;;;;;;12.38;4.25;;;;;;;;;;5031323;28;20201;-74
2021/04/22 04:25:21;;;;;;;9.30;2.58;;;;;;;;;;5030896;28;20556;-74
2021/04/22 04:27:47;;;;;;;5.25;2.25;;;;;;;;;;5031120;28;20206;-74
2021/04/22 04:30:16;;;;;;;10.83;2.80;;;;;;;;;;5030562;28;20205;-72
2021/04/22 04:32:42;;;;;;;3.88;2.75;;;;;;;;;;5022835;28;20944;-72
2021/04/22 04:35:09;;;;;;;6.78;3.85;;;;;;;;;;5028804;28;20182;-72
2021/04/22 04:37:36;;;;;;;3.55;3.03;;;;;;;;;;5031562;28;20183;-73
2021/04/22 04:40:03;;;;;;;7.18;2.63;;;;;;;;;;5030813;28;20173;-72
2021/04/22 04:42:29;;;;;;;4.50;2.50;;;;;;;;;;5030851;28;20210;-70
2021/04/22 04:44:55;;;;;;;3.17;2.20;;;;;;;;;;5028335;28;20670;-71
2021/04/22 04:47:21;;;;;;;8.05;3.47;;;;;;;;;;5030983;28;20201;-71
2021/04/22 04:49:47;;;;;;;3.08;2.35;;;;;;;;;;5029182;28;20179;-71
2021/04/22 04:52:13;;;;;;;5.13;2.55;;;;;;;;;;5022789;28;20185;-71
2021/04/22 04:54:39;;;;;;;6.68;4.03;;;;;;;;;;5030398;28;20234;-71
2021/04/22 04:57:09;;;;;;;4.10;3.15;;;;;;;;;;5030830;28;20178;-71
2021/04/22 04:59:35;;;;;;;5.97;2.63;;;;;;;;;;5028923;28;20222;-70
2021/04/22 05:02:02;;;;;;;5.05;2.85;;;;;;;;;;5028766;28;20186;-72
2021/04/22 05:04:28;;;;;;;8.88;2.75;;;;;;;;;;5029870;28;20229;-71
2021/04/22 05:06:54;;;;;;;5.57;3.00;;;;;;;;;;5031357;28;20688;-71
2021/04/22 05:09:20;;;;;;;5.97;2.80;;;;;;;;;;5031161;28;20177;-70
2021/04/22 05:11:46;;;;;;;6.85;2.85;;;;;;;;;;5029176;28;20182;-71
2021/04/22 05:14:12;;;;;;;4.22;2.83;;;;;;;;;;5030009;28;20205;-72
2021/04/22 05:16:38;;;;;;;5.65;2.38;;;;;;;;;;5031003;28;20186;-72
2021/04/22 05:19:04;;;;;;;4.40;2.63;;;;;;;;;;5031936;28;20602;-72
2021/04/22 05:21:30;;;;;;;5.93;2.85;;;;;;;;;;5034436;28;20179;-72
2021/04/22 05:23:56;;;;;;;7.15;2.72;;;;;;;;;;5034766;28;20222;-71
2021/04/22 05:26:22;;;;;;;3.58;2.80;;;;;;;;;;5034155;28;20754;-72
2021/04/22 05:28:48;;;;;;;12.00;3.72;;;;;;;;;;5035220;28;20661;-72
2021/04/22 05:31:14;;;;;;;4.90;2.78;;;;;;;;;;5030660;28;20292;-71
2021/04/22 05:33:40;;;;;;;6.55;2.63;;;;;;;;;;5034777;28;20233;-72
2021/04/22 05:36:07;;;;;;;7.97;3.75;;;;;;;;;;5034436;28;20252;-72
2021/04/22 05:38:33;;;;;;;2.95;2.35;;;;;;;;;;5034845;28;20242;-71
2021/04/22 05:40:59;;;;;;;4.32;3.05;;;;;;;;;;5033947;28;20593;-72
2021/04/22 05:43:25;;;;;;;4.00;3.60;;;;;;;;;;5034496;28;20194;-72
2021/04/22 05:45:51;;;;;;;6.63;3.40;;;;;;;;;;5033820;28;20554;-72
2021/04/22 05:48:17;;;;;;;2.92;2.28;;;;;;;;;;5034703;28;20711;-71
2021/04/22 05:50:43;;;;;;;6.78;3.08;;;;;;;;;;5032295;28;20185;-72
2021/04/22 05:53:09;;;;;;;5.90;3.53;;;;;;;;;;5034189;28;20281;-71
2021/04/22 05:55:35;;;;;;;4.25;3.08;;;;;;;;;;5033123;28;20607;-71
2021/04/22 05:58:01;;;;;;;4.95;2.92;;;;;;;;;;5033550;28;20192;-71
2021/04/22 06:00:29;;;;;;;2.88;2.15;;;;;;;;;;5043318;28;20636;-71
2021/04/22 06:02:55;;;;;;;4.95;3.15;;;;;;;;;;5042290;28;20202;-72
2021/04/22 06:05:21;;;;;;;6.63;4.15;;;;;;;;;;5031823;28;20277;-71
2021/04/22 06:07:48;;;;;;;3.10;2.60;;;;;;;;;;5032126;28;20198;-71
2021/04/22 06:10:14;;;;;;;4.35;2.55;;;;;;;;;;5034293;28;20178;-71
2021/04/22 06:12:41;;;;;;;7.10;2.95;;;;;;;;;;5033973;28;20656;-71
2021/04/22 06:15:08;;;;;;;7.80;3.55;;;;;;;;;;5034064;28;20202;-72
2021/04/22 06:17:34;;;;;;;4.65;2.63;;;;;;;;;;5032851;28;20232;-71
2021/04/22 06:20:00;;;;;;;8.95;3.72;;;;;;;;;;5034145;28;20174;-72
2021/04/22 06:22:26;;;;;;;7.00;3.00;;;;;;;;;;5033996;28;20189;-72
2021/04/22 06:24:52;;;;;;;4.07;2.85;;;;;;;;;;5034145;28;20221;-71
2021/04/22 06:27:18;;;;;;;5.78;3.13;;;;;;;;;;5033985;28;20198;-72
2021/04/22 06:29:44;;;;;;;10.18;4.00;;;;;;;;;;5033481;28;20751;-72
2021/04/22 06:32:11;;;;;;;5.22;3.10;;;;;;;;;;5040474;28;20260;-72
2021/04/22 06:34:37;;;;;;;8.60;3.47;;;;;;;;;;5036946;28;20194;-72
2021/04/22 06:37:03;;;;;;;6.97;3.92;;;;;;;;;;5033878;28;20267;-72
2021/04/22 06:39:30;;;;;;;6.75;4.80;;;;;;;;;;5033904;28;20181;-72
2021/04/22 06:41:56;;;;;;;11.45;4.35;;;;;;;;;;5033575;28;20193;-72
2021/04/22 06:44:22;;;;;;;6.50;3.95;;;;;;;;;;5033526;28;20244;-72
2021/04/22 06:46:48;;;;;;;7.10;4.17;;;;;;;;;;5033515;28;20198;-72
2021/04/22 06:49:14;;;;;;;8.68;3.67;;;;;;;;;;5033666;28;20437;-72
2021/04/22 06:51:40;;;;;;;7.75;3.80;;;;;;;;;;5033256;28;20216;-72
2021/04/22 06:54:06;;;;;;;11.25;4.93;;;;;;;;;;5033420;28;20205;-72
2021/04/22 06:56:32;;;;;;;13.75;4.13;;;;;;;;;;5037264;28;20231;-72
2021/04/22 06:59:02;;;;;;;8.82;4.15;;;;;;;;;;5022443;28;20209;-72
2021/04/22 07:01:28;;;;;;;7.32;3.90;;;;;;;;;;5031830;28;20171;-71
2021/04/22 07:03:54;;;;;;;9.23;4.85;;;;;;;;;;5020429;28;20194;-72
2021/04/22 07:06:20;;;;;;;8.23;4.00;;;;;;;;;;5032341;28;20170;-72
2021/04/22 07:08:47;;;;;;;10.13;3.53;;;;;;;;;;5013714;28;20210;-71
2021/04/22 07:11:13;;;;;;;5.53;3.33;;;;;;;;;;5019859;28;20199;-72
2021/04/22 07:13:39;;;;;;;12.98;3.97;;;;;;;;;;5023197;28;20277;-72
2021/04/22 07:16:05;;;;;;;8.18;3.95;;;;;;;;;;5032903;28;20206;-72
2021/04/22 07:18:32;;;;;;;11.38;4.00;;;;;;;;;;5016045;28;20269;-72
2021/04/22 07:20:58;;;;;;;9.00;4.85;;;;;;;;;;5013351;28;20175;-72
2021/04/22 07:23:24;;;;;;;6.75;3.28;;;;;;;;;;5012795;28;20273;-71
2021/04/22 07:25:51;;;;;;;5.05;4.55;;;;;;;;;;5022891;28;20182;-71
2021/04/22 07:28:17;;;;;;;8.32;3.30;;;;;;;;;;5032977;28;20209;-72
2021/04/22 07:30:43;;;;;;;4.38;3.20;;;;;;;;;;5042271;28;20174;-72
2021/04/22 07:33:10;;;;;;;10.95;3.15;;;;;;;;;;5052339;28;20203;-71
2021/04/22 07:35:37;;;;;;;3.08;2.30;;;;;;;;;;5052809;28;20172;-71
2021/04/22 07:38:05;;;;;;;8.82;3.83;;;;;;;;;;5052686;28;20612;-72
2021/04/22 07:40:31;;;;;;;5.05;2.60;;;;;;;;;;5042238;28;20182;-71
2021/04/22 07:42:57;;;;;;;6.75;2.70;;;;;;;;;;5032409;28;20194;-72
2021/04/22 07:45:30;;;;;;;4.80;2.55;;;;;;;;;;5032426;28;20184;-71
2021/04/22 07:47:57;;;;;;;6.20;2.97;;;;;;;;;;5032550;28;20295;-72
2021/04/22 07:50:23;;;;;;;5.25;3.15;;;;;;;;;;5032593;28;20181;-72
2021/04/22 07:52:50;;;;;;;4.13;2.92;;;;;;;;;;5032068;28;20661;-72
2021/04/22 07:55:17;;;;;;;3.80;3.17;;;;;;;;;;5031990;28;20256;-72
2021/04/22 07:57:44;;;;;;;4.82;2.60;;;;;;;;;;5031276;28;20637;-72
2021/04/22 08:00:12;;;;;;;2.83;2.20;;;;;;;;;;5029687;28;20673;-72
2021/04/22 08:02:38;;;;;;;7.05;2.17;;;;;;;;;;5050709;28;20204;-72
2021/04/22 08:05:04;;;;;;;2.90;2.25;;;;;;;;;;5052319;28;20256;-72
2021/04/22 08:07:31;;;;;;;5.70;2.60;;;;;;;;;;5032546;28;20207;-72
2021/04/22 08:09:57;;;;;;;3.72;2.45;;;;;;;;;;5030607;28;20200;-72
2021/04/22 08:12:23;;;;;;;2.75;2.22;;;;;;;;;;5031454;28;20178;-72
2021/04/22 08:14:49;;;;;;;5.80;2.53;;;;;;;;;;5029987;28;20213;-72
2021/04/22 08:17:15;;;;;;;5.85;3.00;;;;;;;;;;5032110;28;20174;-72
2021/04/22 08:19:41;;;;;;;2.72;2.53;;;;;;;;;;5031979;28;20184;-72
2021/04/22 08:22:07;;;;;;;4.47;3.17;;;;;;;;;;5029941;28;20193;-72
2021/04/22 08:24:33;;;;;;;8.10;3.07;;;;;;;;;;5029345;28;20224;-72
2021/04/22 08:26:59;;;;;;;5.63;2.30;;;;;;;;;;5031743;28;20452;-72
2021/04/22 08:29:25;;;;;;;2.90;2.60;;;;;;;;;;5031344;28;20174;-72
2021/04/22 08:31:51;;;;;;;3.50;2.17;;;;;;;;;;5036229;28;20471;-71
2021/04/22 08:34:18;;;;;;;2.70;1.90;;;;;;;;;;5049414;28;20444;-72
2021/04/22 08:36:44;;;;;;;5.68;2.30;;;;;;;;;;5031821;28;20559;-72
2021/04/22 08:39:10;;;;;;;5.85;2.40;;;;;;;;;;5036996;28;20220;-72
2021/04/22 08:41:39;;;;;;;5.55;2.00;;;;;;;;;;5048060;28;20230;-72
2021/04/22 08:44:05;;;;;;;3.10;2.67;;;;;;;;;;5041802;28;20787;-72
2021/04/22 08:46:31;;;;;;;2.90;2.30;;;;;;;;;;5031164;28;20261;-72
2021/04/22 08:48:57;;;;;;;3.28;2.90;;;;;;;;;;5031621;28;20589;-72
2021/04/22 08:51:24;;;;;;;4.22;3.00;;;;;;;;;;5034160;28;20663;-72
2021/04/22 08:53:50;;;;;;;5.88;2.58;;;;;;;;;;5047638;28;20204;-72
2021/04/22 08:56:18;;;;;;;6.95;2.95;;;;;;;;;;5058112;28;20541;-72
2021/04/22 08:58:44;;;;;;;5.03;3.10;;;;;;;;;;5058013;28;20212;-72
2021/04/22 09:01:12;;;;;;;6.60;3.70;;;;;;;;;;5045766;28;20205;-72
2021/04/22 09:03:39;;;;;;;6.75;3.60;;;;;;;;;;5021853;28;20507;-72
2021/04/22 09:06:05;;;;;;;6.88;3.40;;;;;;;;;;5018088;28;20693;-72
2021/04/22 09:08:33;;;;;;;6.97;4.03;;;;;;;;;;5053508;28;20255;-72
2021/04/22 09:10:59;;;;;;;3.70;3.33;;;;;;;;;;5057687;28;20170;-72
2021/04/22 09:13:26;;;;;;;3.40;2.58;;;;;;;;;;5057710;28;20197;-72
2021/04/22 09:15:59;;;;;;;3.47;2.80;;;;;;;;;;5028137;28;20179;-72
2021/04/22 09:18:25;;;;;;;5.40;3.65;;;;;;;;;;5018196;28;20183;-72
2021/04/22 09:20:53;;;;;;;7.85;3.08;;;;;;;;;;5018217;28;20178;-72
2021/04/22 09:23:26;;;;;;;7.22;3.25;;;;;;;;;;5028127;28;20218;-72
2021/04/22 09:25:59;;;;;;;7.47;3.60;;;;;;;;;;5037792;28;20210;-72
2021/04/22 09:28:35;;;;;;;9.45;3.17;;;;;;;;;;5037692;28;20215;-72
2021/04/22 09:31:02;;;;;;;7.10;3.45;;;;;;;;;;5032310;28;20181;-72
2021/04/22 09:33:28;;;;;;;4.15;2.95;;;;;;;;;;5054965;28;20566;-72
2021/04/22 09:36:04;;;;;;;4.40;3.40;;;;;;;;;;5046969;28;20251;-72
2021/04/22 09:38:30;;;;;;;4.85;3.20;;;;;;;;;;5036887;28;20179;-72
2021/04/22 09:41:06;;;;;;;3.93;2.90;;;;;;;;;;5043665;28;20565;-72
2021/04/22 09:43:32;;;;;;;3.40;3.20;;;;;;;;;;5054271;28;20587;-72
2021/04/22 09:45:58;;;;;;;5.20;3.60;;;;;;;;;;5037412;28;20285;-72
2021/04/22 09:48:30;;;;;;;5.23;2.90;;;;;;;;;;5037657;28;20449;-72
2021/04/22 09:50:57;;;;;;;6.75;3.50;;;;;;;;;;5036689;28;20438;-72
2021/04/22 09:53:28;;;;;;;4.90;2.55;;;;;;;;;;5037446;28;20657;-72
2021/04/22 09:55:56;;;;;;;3.45;3.15;;;;;;;;;;5037631;28;20183;-72
2021/04/22 09:58:29;;;;;;;6.32;3.50;;;;;;;;;;5035704;28;20194;-72
2021/04/22 10:00:56;;;;;;;7.40;3.53;;;;;;;;;;5031687;28;20565;-72
2021/04/22 10:03:22;;;;;;;7.13;3.10;;;;;;;;;;5034418;28;21004;-72
2021/04/22 10:05:59;;;;;;;4.17;3.10;;;;;;;;;;5034441;28;20496;-72
2021/04/22 10:08:26;;;;;;;5.75;3.30;;;;;;;;;;5034398;28;20961;-72
2021/04/22 10:10:55;;;;;;;5.07;2.83;;;;;;;;;;5032998;28;20646;-72
2021/04/22 10:13:21;;;;;;;5.63;3.92;;;;;;;;;;5049694;28;20202;-72
2021/04/22 10:15:51;;;;;;;7.60;3.60;;;;;;;;;;5032643;28;20522;-72
2021/04/22 10:18:18;;;;;;;2.90;2.43;;;;;;;;;;5034159;28;20468;-72
2021/04/22 10:20:44;;;;;;;4.80;2.88;;;;;;;;;;5029702;28;20450;-72
2021/04/22 10:23:10;;;;;;;2.75;2.55;;;;;;;;;;5033396;28;20217;-72
2021/04/22 10:25:39;;;;;;;3.45;2.80;;;;;;;;;;5043193;28;20726;-72
2021/04/22 10:28:09;;;;;;;6.05;2.55;;;;;;;;;;5053802;28;20206;-72
2021/04/22 10:30:37;;;;;;;3.55;2.90;;;;;;;;;;5041692;28;20259;-73
2021/04/22 10:33:03;;;;;;;5.60;2.60;;;;;;;;;;5033609;28;20769;-72
2021/04/22 10:35:30;;;;;;;4.50;2.63;;;;;;;;;;5041857;28;20182;-73
2021/04/22 10:37:56;;;;;;;3.53;2.50;;;;;;;;;;5053649;28;20424;-73
2021/04/22 10:40:28;;;;;;;2.60;2.30;;;;;;;;;;5037781;28;20821;-73
2021/04/22 10:42:55;;;;;;;3.10;2.47;;;;;;;;;;5033378;28;20490;-73
2021/04/22 10:45:21;;;;;;;4.27;3.87;;;;;;;;;;5030545;28;20817;-72
2021/04/22 10:47:48;;;;;;;3.57;2.70;;;;;;;;;;5053428;28;20461;-73
2021/04/22 10:50:16;;;;;;;3.53;3.23;;;;;;;;;;5053236;28;20435;-73
2021/04/22 10:52:43;;;;;;;5.10;2.50;;;;;;;;;;5053329;28;20397;-73
2021/04/22 10:55:16;;;;;;;5.33;3.50;;;;;;;;;;5053400;28;20389;-73
2021/04/22 10:57:42;;;;;;;2.60;2.40;;;;;;;;;;5053514;28;20900;-73
2021/04/22 11:00:10;;;;;;;2.67;2.43;;;;;;;;;;5040010;28;20444;-73
2021/04/22 11:02:47;;;;;;;3.23;2.93;;;;;;;;;;5047098;28;20409;-73
2021/04/22 11:05:18;;;;;;;3.60;2.80;;;;;;;;;;5050397;28;20410;-73
2021/04/22 11:07:54;;;;;;;4.57;2.70;;;;;;;;;;5033231;28;20485;-73
2021/04/22 11:10:20;;;;;;;6.77;3.00;;;;;;;;;;5032508;28;20848;-73
2021/04/22 11:12:46;;;;;;;3.67;2.63;;;;;;;;;;5033022;28;20435;-73
2021/04/22 11:15:19;;;;;;;3.43;2.90;;;;;;;;;;5032846;28;20403;-73
2021/04/22 11:17:46;;;;;;;3.27;2.73;;;;;;;;;;5033020;28;20411;-73
2021/04/22 11:20:19;;;;;;;4.17;3.20;;;;;;;;;;5032656;28;20409;-73
2021/04/22 11:22:46;;;;;;;7.00;2.97;;;;;;;;;;5032516;28;20559;-73
2021/04/22 11:25:18;;;;;;;2.20;2.10;;;;;;;;;;5033544;28;20423;-73
2021/04/22 11:27:49;;;;;;;3.57;3.27;;;;;;;;;;5035212;28;20499;-73
2021/04/22 11:30:24;;;;;;;2.50;2.30;;;;;;;;;;5037565;28;20459;-73
2021/04/22 11:32:52;;;;;;;3.43;2.67;;;;;;;;;;5030280;28;20844;-73
2021/04/22 11:35:19;;;;;;;6.87;2.90;;;;;;;;;;5031566;28;20918;-73
2021/04/22 11:37:45;;;;;;;8.00;2.70;;;;;;;;;;5044161;28;20506;-73
2021/04/22 11:40:13;;;;;;;6.00;2.73;;;;;;;;;;5035671;28;20444;-73
2021/04/22 11:42:40;;;;;;;4.10;3.03;;;;;;;;;;5032334;28;20415;-73
2021/04/22 11:45:07;;;;;;;5.70;3.53;;;;;;;;;;5031677;28;20433;-73
2021/04/22 11:47:33;;;;;;;2.93;2.30;;;;;;;;;;5050522;28;20971;-73
2021/04/22 11:50:11;;;;;;;4.17;3.40;;;;;;;;;;5036022;28;20426;-73
2021/04/22 11:52:46;;;;;;;6.13;3.77;;;;;;;;;;5032127;28;20468;-73
2021/04/22 11:55:17;;;;;;;6.40;2.80;;;;;;;;;;5031116;28;20457;-73
2021/04/22 11:57:50;;;;;;;5.63;3.20;;;;;;;;;;5030930;28;20537;-73
2021/04/22 12:00:17;;;;;;;4.07;2.77;;;;;;;;;;5030507;28;20441;-73
2021/04/22 12:02:43;;;;;;;4.83;2.50;;;;;;;;;;5046819;28;20536;-73
2021/04/22 12:05:09;;;;;;;3.53;3.20;;;;;;;;;;5031746;28;20432;-73
2021/04/22 12:07:35;;;;;;;5.30;3.60;;;;;;;;;;5021082;28;20472;-73
2021/04/22 12:10:05;;;;;;;4.27;3.30;;;;;;;;;;5029358;28;20465;-73
2021/04/22 12:12:31;;;;;;;4.07;3.50;;;;;;;;;;5031776;28;20425;-71
2021/04/22 12:14:59;;;;;;;6.80;3.87;;;;;;;;;;5032133;28;20401;-73
2021/04/22 12:17:28;;;;;;;4.40;2.97;;;;;;;;;;5031253;28;20417;-72
2021/04/22 12:19:56;;;;;;;3.70;3.40;;;;;;;;;;5030783;28;20596;-74
2021/04/22 12:22:33;;;;;;;3.03;2.73;;;;;;;;;;5029784;28;21176;-74
2021/04/22 12:24:59;;;;;;;3.83;3.30;;;;;;;;;;5049161;28;20509;-73
2021/04/22 12:27:26;;;;;;;6.50;3.63;;;;;;;;;;5051259;28;20460;-73
2021/04/22 12:29:52;;;;;;;5.07;4.03;;;;;;;;;;5045453;28;20424;-73
2021/04/22 12:32:18;;;;;;;3.70;3.40;;;;;;;;;;5051292;28;20415;-74
2021/04/22 12:34:44;;;;;;;3.47;3.17;;;;;;;;;;5031995;28;20447;-74
2021/04/22 12:37:12;;;;;;;3.67;3.30;;;;;;;;;;5031146;28;20428;-73
2021/04/22 12:39:45;;;;;;;3.10;2.90;;;;;;;;;;5038092;28;20463;-73
2021/04/22 12:42:16;;;;;;;4.77;3.40;;;;;;;;;;5038605;28;20437;-73
2021/04/22 12:45:00;;;;;;;7.73;3.10;;;;;;;;;;5031715;28;20433;-74
2021/04/22 12:47:53;;;;;;;3.10;2.30;;;;;;;;;;5030899;28;20467;-70
2021/04/22 12:50:25;;;;;;;3.77;2.30;;;;;;;;;;5029124;28;20425;-71
2021/04/22 12:53:00;;;;;;;3.10;2.77;;;;;;;;;;5031171;28;20425;-70
2021/04/22 12:55:26;;;;;;;3.03;2.53;;;;;;;;;;5035299;28;20428;-71
2021/04/22 12:57:54;;;;;;;4.77;3.13;;;;;;;;;;5051554;28;20439;-71
2021/04/22 13:00:26;;;;;;;4.03;3.13;;;;;;;;;;5051346;28;20893;-71
2021/04/22 13:02:52;;;;;;;5.30;3.33;;;;;;;;;;5031627;28;20448;-71
2021/04/22 13:05:21;;;;;;;3.50;2.60;;;;;;;;;;5031457;28;20421;-71
2021/04/22 13:07:47;;;;;;;5.67;3.23;;;;;;;;;;5031472;28;20897;-74
2021/04/22 13:10:15;;;;;;;3.30;2.77;;;;;;;;;;5029491;28;20437;-74
2021/04/22 13:12:41;;;;;;;4.13;3.20;;;;;;;;;;5031079;28;20415;-73
2021/04/22 13:15:10;;;;;;;5.13;3.27;;;;;;;;;;5031496;28;20771;-73
2021/04/22 13:17:36;;;;;;;4.27;3.40;;;;;;;;;;5028985;28;20447;-73
2021/04/22 13:20:03;;;;;;;3.53;3.20;;;;;;;;;;5031893;28;20434;-73
2021/04/22 13:22:29;;;;;;;4.60;3.27;;;;;;;;;;5050928;28;20430;-73
2021/04/22 13:43:05;;;;;;;3.83;3.00;;;;;;;;;;5204740;22;20604;-75
2021/04/22 13:45:35;;;;;;;4.03;2.60;;;;;;;;;;5046639;28;20455;-73
2021/04/22 13:48:11;;;;;;;5.80;3.40;;;;;;;;;;5061059;28;20477;-75
2021/04/22 13:50:38;;;;;;;4.30;3.40;;;;;;;;;;5066539;28;20512;-75
2021/04/22 13:53:05;;;;;;;4.17;3.80;;;;;;;;;;5053029;28;20470;-76
2021/04/22 13:55:42;;;;;;;3.40;3.10;;;;;;;;;;5053110;28;20431;-77
2021/04/22 13:58:08;;;;;;;2.97;2.40;;;;;;;;;;5057171;28;20439;-77
2021/04/22 14:00:35;;;;;;;5.50;3.40;;;;;;;;;;5051862;28;20488;-77
2021/04/22 14:03:07;;;;;;;3.87;3.13;;;;;;;;;;5064662;28;20459;-77
2021/04/22 14:05:37;;;;;;;5.13;3.43;;;;;;;;;;5052230;28;20425;-76
2021/04/22 14:08:03;;;;;;;4.57;3.37;;;;;;;;;;5060141;28;20469;-77
2021/04/22 14:10:31;;;;;;;3.13;2.93;;;;;;;;;;5072947;28;20828;-78
2021/04/22 14:12:57;;;;;;;3.33;3.03;;;;;;;;;;5074006;28;20427;-77
2021/04/22 14:15:24;;;;;;;4.53;3.00;;;;;;;;;;5075263;28;20475;-77
2021/04/22 14:17:50;;;;;;;3.50;3.20;;;;;;;;;;5070091;28;20471;-77
2021/04/22 14:20:16;;;;;;;5.63;3.57;;;;;;;;;;5058014;28;20412;-77
2021/04/22 14:22:42;;;;;;;4.47;3.40;;;;;;;;;;5054165;28;20450;-75
2021/04/22 14:25:09;;;;;;;3.73;3.27;;;;;;;;;;5061674;28;20428;-77
2021/04/22 14:27:35;;;;;;;2.77;2.43;;;;;;;;;;5073333;28;20459;-76
2021/04/22 14:30:01;;;;;;;10.00;3.87;;;;;;;;;;5074016;28;20780;-76
2021/04/22 14:32:27;;;;;;;5.30;3.67;;;;;;;;;;5071610;28;20497;-77
2021/04/22 14:34:53;;;;;;;4.30;3.30;;;;;;;;;;5058776;28;20964;-77
2021/04/22 14:37:19;;;;;;;3.10;2.67;;;;;;;;;;5056398;28;20933;-76
2021/04/22 14:39:45;;;;;;;3.70;2.50;;;;;;;;;;5052499;28;20439;-76
2021/04/22 14:42:11;;;;;;;4.80;3.00;;;;;;;;;;5052778;28;20461;-76
2021/04/22 14:44:37;;;;;;;3.90;3.13;;;;;;;;;;5053173;28;20827;-73
2021/04/22 14:47:03;;;;;;;3.77;3.03;;;;;;;;;;5051119;28;20573;-75
2021/04/22 14:49:29;;;;;;;3.73;3.30;;;;;;;;;;5062964;28;20428;-76
2021/04/22 14:51:55;;;;;;;4.27;3.30;;;;;;;;;;5072345;28;20491;-74
2021/04/22 14:54:21;;;;;;;3.43;3.17;;;;;;;;;;5073485;28;20414;-76
2021/04/22 14:56:48;;;;;;;3.20;2.67;;;;;;;;;;5073345;28;20403;-76
2021/04/22 14:59:14;;;;;;;3.53;2.20;;;;;;;;;;5059517;28;20837;-76
2021/04/22 15:01:40;;;;;;;3.30;2.70;;;;;;;;;;5052913;28;20430;-76